createdAt,value
2022-09-26T00:01:47.401Z,5.22
2022-09-26T00:03:50.432Z,3.90
2022-09-26T00:05:52.061Z,4.70
2022-09-26T00:07:53.523Z,3.20
2022-09-26T00:09:55.398Z,5.10
2022-09-26T00:11:56.917Z,4.35
2022-09-26T00:13:59.613Z,5.60
2022-09-26T00:16:01.146Z,3.30
2022-09-26T00:18:02.652Z,2.00
2022-09-26T00:20:04.458Z,4.25
2022-09-26T00:22:05.974Z,4.60
2022-09-26T00:24:07.662Z,5.60
2022-09-26T00:26:09.969Z,3.90
2022-09-26T00:28:11.377Z,5.00
2022-09-26T00:30:12.896Z,4.20
2022-09-26T00:32:14.261Z,2.88
2022-09-26T00:34:17.663Z,2.38
2022-09-26T00:36:19.394Z,6.03
2022-09-26T00:38:21.650Z,1.90
2022-09-26T00:40:27.045Z,6.03
2022-09-26T00:42:28.693Z,4.30
2022-09-26T00:44:35.468Z,6.38
2022-09-26T00:46:38.694Z,6.07
2022-09-26T00:48:40.872Z,5.88
2022-09-26T00:50:42.677Z,4.35
2022-09-26T00:53:04.319Z,4.85
2022-09-26T00:55:07.386Z,3.42
2022-09-26T00:57:10.936Z,2.45
2022-09-26T00:59:15.846Z,6.60
2022-09-26T01:01:17.931Z,2.47
2022-09-26T01:03:31.554Z,3.10
2022-09-26T01:05:44.898Z,2.35
2022-09-26T01:07:55.364Z,3.45
2022-09-26T01:10:05.492Z,2.85
2022-09-26T01:12:16.880Z,2.85
2022-09-26T01:14:26.808Z,3.35
2022-09-26T01:16:37.688Z,6.75
2022-09-26T01:18:48.112Z,8.77
2022-09-26T01:21:06.199Z,3.80
2022-09-26T01:23:29.230Z,6.15
2022-09-26T01:25:43.367Z,3.97
2022-09-26T01:28:09.206Z,5.72
2022-09-26T01:30:35.362Z,7.20
2022-09-26T01:32:49.112Z,3.72
2022-09-26T01:34:59.814Z,4.93
2022-09-26T01:37:27.496Z,4.30
2022-09-26T01:39:29.050Z,4.03
2022-09-26T01:41:39.113Z,3.47
2022-09-26T01:43:43.681Z,2.45
2022-09-26T01:45:51.167Z,4.93
2022-09-26T01:47:57.323Z,1.65
2022-09-26T01:50:02.062Z,5.20
2022-09-26T01:52:23.311Z,4.95
2022-09-26T01:54:27.743Z,9.07
2022-09-26T01:56:32.157Z,4.38
2022-09-26T01:58:36.089Z,4.50
2022-09-26T02:00:39.928Z,5.93
2022-09-26T02:02:43.018Z,5.93
2022-09-26T02:04:52.514Z,2.80
2022-09-26T02:06:57.382Z,2.80
2022-09-26T02:09:02.553Z,4.78
2022-09-26T02:11:12.974Z,6.70
2022-09-26T02:13:16.938Z,4.90
2022-09-26T02:15:20.500Z,9.82
2022-09-26T02:17:25.390Z,8.63
2022-09-26T02:19:27.545Z,2.05
2022-09-26T02:21:29.275Z,3.53
2022-09-26T02:23:30.767Z,7.03
2022-09-26T02:25:33.215Z,8.23
2022-09-26T02:27:35.050Z,2.30
2022-09-26T02:29:36.682Z,4.75
2022-09-26T02:31:41.846Z,5.20
2022-09-26T02:33:43.771Z,5.55
2022-09-26T02:35:54.242Z,2.17
2022-09-26T02:37:55.644Z,3.22
2022-09-26T02:39:57.353Z,8.65
2022-09-26T02:42:17.625Z,6.45
2022-09-26T02:44:24.974Z,2.45
2022-09-26T02:46:26.326Z,1.65
2022-09-26T02:48:27.698Z,6.57
2022-09-26T02:50:29.285Z,5.75
2022-09-26T02:52:34.122Z,6.50
2022-09-26T02:54:43.790Z,3.00
2022-09-26T02:56:55.664Z,4.38
2022-09-26T02:59:01.491Z,4.20
2022-09-26T03:01:11.813Z,2.58
2022-09-26T03:03:19.969Z,5.97
2022-09-26T03:05:23.921Z,5.60
2022-09-26T03:07:32.193Z,7.97
2022-09-26T03:09:34.289Z,3.47
2022-09-26T03:11:36.075Z,6.80
2022-09-26T03:13:38.433Z,5.15
2022-09-26T03:15:42.317Z,8.60
2022-09-26T03:17:47.650Z,7.85
2022-09-26T03:19:58.256Z,8.65
2022-09-26T03:22:00.108Z,3.42
2022-09-26T03:24:01.773Z,6.32
2022-09-26T03:26:07.901Z,4.70
2022-09-26T03:28:10.658Z,4.32
2022-09-26T03:30:12.850Z,4.50
2022-09-26T03:32:14.465Z,11.50
2022-09-26T03:34:16.695Z,3.28
2022-09-26T03:36:19.230Z,1.77
2022-09-26T03:38:20.672Z,3.40
2022-09-26T03:40:22.355Z,7.53
2022-09-26T03:42:24.515Z,4.30
2022-09-26T03:44:26.375Z,8.55
2022-09-26T03:46:28.655Z,2.70
2022-09-26T03:48:30.462Z,5.93
2022-09-26T03:50:33.825Z,6.07
2022-09-26T03:52:36.615Z,2.28
2022-09-26T03:54:38.331Z,2.47
2022-09-26T03:56:40.956Z,7.75
2022-09-26T03:58:42.904Z,2.65
2022-09-26T04:00:44.778Z,5.93
2022-09-26T04:02:46.979Z,7.18
2022-09-26T04:04:48.530Z,5.55
2022-09-26T04:06:56.708Z,6.03
2022-09-26T04:09:10.198Z,7.13
2022-09-26T04:11:30.341Z,5.32
2022-09-26T04:13:51.143Z,4.18
2022-09-26T04:16:02.410Z,4.05
2022-09-26T04:18:13.978Z,7.30
2022-09-26T04:20:25.132Z,3.53
2022-09-26T04:22:35.940Z,5.15
2022-09-26T04:24:46.283Z,7.97
2022-09-26T04:26:56.890Z,3.90
2022-09-26T04:29:07.311Z,2.90
2022-09-26T04:31:18.780Z,5.78
2022-09-26T04:33:29.932Z,7.28
2022-09-26T04:35:41.812Z,2.95
2022-09-26T04:37:46.262Z,3.40
2022-09-26T04:39:48.473Z,6.28
2022-09-26T04:41:50.192Z,8.73
2022-09-26T04:43:53.375Z,4.72
2022-09-26T04:45:54.895Z,9.27
2022-09-26T04:47:57.066Z,6.43
2022-09-26T04:49:58.741Z,8.20
2022-09-26T04:52:00.571Z,2.58
2022-09-26T04:54:02.039Z,5.40
2022-09-26T04:56:03.568Z,7.30
2022-09-26T04:58:05.610Z,1.85
2022-09-26T05:00:07.635Z,4.40
2022-09-26T05:02:09.497Z,4.10
2022-09-26T05:04:13.010Z,4.25
2022-09-26T05:06:15.921Z,5.00
2022-09-26T05:08:17.672Z,3.40
2022-09-26T05:10:19.129Z,4.80
2022-09-26T05:12:20.778Z,1.73
2022-09-26T05:14:22.340Z,5.53
2022-09-26T05:16:24.135Z,2.13
2022-09-26T05:18:26.339Z,2.15
2022-09-26T05:20:31.743Z,5.13
2022-09-26T05:22:33.534Z,1.90
2022-09-26T05:24:54.153Z,4.82
2022-09-26T05:26:55.902Z,2.63
2022-09-26T05:29:09.120Z,3.78
2022-09-26T05:31:10.919Z,2.90
2022-09-26T05:33:13.442Z,6.80
2022-09-26T05:35:15.172Z,2.40
2022-09-26T05:37:16.890Z,5.28
2022-09-26T05:39:41.649Z,3.05
2022-09-26T05:41:44.010Z,0.88
2022-09-26T05:43:46.016Z,3.72
2022-09-26T05:45:50.922Z,5.22
2022-09-26T05:47:52.694Z,5.60
2022-09-26T05:49:54.747Z,4.22
2022-09-26T05:51:56.748Z,4.78
2022-09-26T05:53:58.422Z,3.40
2022-09-26T05:55:59.983Z,2.47
2022-09-26T05:58:01.558Z,2.15
2022-09-26T06:00:03.507Z,1.98
2022-09-26T06:02:05.901Z,1.02
2022-09-26T06:04:07.722Z,2.42
2022-09-26T06:06:10.743Z,2.72
2022-09-26T06:08:12.519Z,2.65
2022-09-26T06:10:14.248Z,2.40
2022-09-26T06:12:19.121Z,3.90
2022-09-26T06:14:26.537Z,2.90
2022-09-26T06:16:28.234Z,3.05
2022-09-26T06:18:29.969Z,3.30
2022-09-26T06:20:35.412Z,3.17
2022-09-26T06:22:41.297Z,2.72
2022-09-26T06:24:42.731Z,1.33
2022-09-26T06:26:44.221Z,0.77
2022-09-26T06:28:45.902Z,0.80
2022-09-26T06:30:47.654Z,1.95
2022-09-26T06:32:51.677Z,3.97
2022-09-26T06:36:54.470Z,2.05
2022-09-26T06:38:56.220Z,0.30
2022-09-26T06:40:57.720Z,0.90
2022-09-26T06:42:59.791Z,1.60
2022-09-26T06:45:01.604Z,1.33
2022-09-26T06:47:03.348Z,1.00
2022-09-26T06:49:06.730Z,4.45
2022-09-26T06:51:08.829Z,0.70
2022-09-26T06:53:11.082Z,1.23
2022-09-26T06:55:12.958Z,1.90
2022-09-26T06:57:15.369Z,2.92
2022-09-26T06:59:17.004Z,2.20
2022-09-26T07:01:19.080Z,3.22
2022-09-26T07:03:20.676Z,7.63
2022-09-26T07:05:22.966Z,3.65
2022-09-26T07:07:24.417Z,5.57
2022-09-26T07:09:26.083Z,7.25
2022-09-26T07:11:38.143Z,7.97
2022-09-26T07:13:50.178Z,8.23
2022-09-26T07:16:04.403Z,4.65
2022-09-26T07:18:15.239Z,11.65
2022-09-26T07:20:23.715Z,8.50
2022-09-26T07:22:33.679Z,11.50
2022-09-26T07:24:41.833Z,8.63
2022-09-26T07:26:47.392Z,7.65
2022-09-26T07:28:55.658Z,12.57
2022-09-26T07:31:05.093Z,14.73
2022-09-26T07:33:16.481Z,14.50
2022-09-26T07:35:25.066Z,9.88
2022-09-26T07:37:36.610Z,6.13
2022-09-26T07:39:51.326Z,10.70
2022-09-26T07:42:07.234Z,14.75
2022-09-26T07:46:50.699Z,17.52
2022-09-26T07:49:11.144Z,11.63
2022-09-26T07:51:12.630Z,8.55
2022-09-26T07:53:14.118Z,14.05
2022-09-26T07:55:20.387Z,14.05
2022-09-26T07:57:21.975Z,13.90
2022-09-26T07:59:23.520Z,17.05
2022-09-26T08:01:26.105Z,20.77
2022-09-26T08:03:29.643Z,11.35
2022-09-26T08:05:32.410Z,16.00
2022-09-26T08:07:35.490Z,9.40
2022-09-26T08:09:37.166Z,12.57
2022-09-26T08:12:04.947Z,21.88
2022-09-26T08:14:06.505Z,7.30
2022-09-26T08:24:14.212Z,12.48
2022-09-26T08:26:15.928Z,14.57
2022-09-26T08:28:18.274Z,14.60
2022-09-26T08:30:20.031Z,12.30
2022-09-26T08:32:21.800Z,13.18
2022-09-26T08:34:25.649Z,9.40
2022-09-26T08:36:27.352Z,10.25
2022-09-26T08:38:28.951Z,5.40
2022-09-26T08:40:34.638Z,9.70
2022-09-26T08:42:43.368Z,7.45
2022-09-26T08:45:24.017Z,8.63
2022-09-26T08:47:44.786Z,12.40
2022-09-26T08:49:50.393Z,10.95
2022-09-26T08:51:53.593Z,8.32
2022-09-26T08:54:06.674Z,11.57
2022-09-26T08:56:14.856Z,9.20
2022-09-26T08:58:24.185Z,11.10
2022-09-26T09:00:32.108Z,11.73
2022-09-26T09:04:44.642Z,9.85
2022-09-26T09:06:46.544Z,12.82
2022-09-26T09:08:48.365Z,13.35
2022-09-26T09:10:59.262Z,15.68
2022-09-26T09:13:10.071Z,14.23
2022-09-26T09:15:25.069Z,10.88
2022-09-26T09:17:38.211Z,10.23
2022-09-26T09:19:39.710Z,15.30
2022-09-26T09:21:57.367Z,10.65
2022-09-26T09:24:09.160Z,15.48
2022-09-26T09:28:42.570Z,22.30
2022-09-26T09:30:47.044Z,11.48
2022-09-26T09:32:56.676Z,16.10
2022-09-26T09:34:58.511Z,18.65
2022-09-26T09:37:04.404Z,16.10
2022-09-26T09:39:07.650Z,17.60
2022-09-26T09:41:10.977Z,13.88
2022-09-26T09:43:12.479Z,14.32
2022-09-26T09:45:39.960Z,14.95
2022-09-26T09:47:41.629Z,15.55
2022-09-26T09:49:44.411Z,12.60
2022-09-26T09:52:10.647Z,16.98
2022-09-26T09:54:32.473Z,18.35
2022-09-26T09:56:34.089Z,15.88
2022-09-26T09:58:35.526Z,14.85
2022-09-26T10:00:41.625Z,17.23
2022-09-26T10:03:00.217Z,17.70
2022-09-26T10:05:01.917Z,15.15
2022-09-26T10:07:05.546Z,14.93
2022-09-26T10:09:35.319Z,18.48
2022-09-26T10:11:42.120Z,19.40
2022-09-26T10:13:44.194Z,20.38
2022-09-26T10:16:04.379Z,19.33
2022-09-26T10:18:24.052Z,16.85
2022-09-26T10:20:44.877Z,16.58
2022-09-26T10:23:01.638Z,17.90
2022-09-26T10:25:20.128Z,14.63
2022-09-26T10:27:23.086Z,15.95
2022-09-26T10:29:39.734Z,15.40
2022-09-26T10:31:44.809Z,19.95
2022-09-26T10:34:03.479Z,18.85
2022-09-26T10:36:12.875Z,18.73
2022-09-26T10:38:27.576Z,17.33
2022-09-26T10:40:48.083Z,16.67
2022-09-26T10:42:52.982Z,13.55
2022-09-26T10:45:12.753Z,15.40
2022-09-26T10:47:18.165Z,22.27
2022-09-26T10:49:41.314Z,12.00
2022-09-26T10:51:50.596Z,10.27
2022-09-26T10:53:56.883Z,13.45
2022-09-26T10:56:06.591Z,12.80
2022-09-26T10:58:13.751Z,19.25
2022-09-26T11:00:20.848Z,15.68
2022-09-26T11:02:23.711Z,14.68
2022-09-26T11:04:48.578Z,17.92
2022-09-26T11:06:50.551Z,15.65
2022-09-26T11:08:54.261Z,15.05
2022-09-26T11:11:02.310Z,14.98
2022-09-26T11:13:16.186Z,20.58
2022-09-26T11:15:17.980Z,17.83
2022-09-26T11:17:19.458Z,19.23
2022-09-26T11:19:28.205Z,13.32
2022-09-26T11:21:41.424Z,15.25
2022-09-26T11:23:53.830Z,16.45
2022-09-26T11:26:05.094Z,23.98
2022-09-26T11:28:11.187Z,13.43
2022-09-26T11:30:14.441Z,12.68
2022-09-26T11:32:17.549Z,15.35
2022-09-26T11:34:26.702Z,14.73
2022-09-26T11:36:29.619Z,13.65
2022-09-26T11:38:47.696Z,17.08
2022-09-26T11:41:03.092Z,18.17
2022-09-26T11:43:25.574Z,15.10
2022-09-26T11:45:46.556Z,20.45
2022-09-26T11:47:52.228Z,15.50
2022-09-26T11:50:06.367Z,8.75
2022-09-26T11:52:14.631Z,13.07
2022-09-26T11:54:23.624Z,18.42
2022-09-26T11:56:43.789Z,12.77
2022-09-26T11:59:08.003Z,12.63
2022-09-26T12:01:28.819Z,13.55
2022-09-26T12:03:46.795Z,12.35
2022-09-26T12:05:56.803Z,16.50
2022-09-26T12:08:04.647Z,22.88
2022-09-26T12:10:26.858Z,20.45
2022-09-26T12:12:34.901Z,12.55
2022-09-26T12:14:43.084Z,17.98
2022-09-26T12:16:48.168Z,15.60
2022-09-26T12:19:05.382Z,13.20
2022-09-26T12:21:12.365Z,15.98
2022-09-26T12:23:16.929Z,9.50
2022-09-26T12:25:30.271Z,14.15
2022-09-26T12:27:37.854Z,8.40
2022-09-26T12:29:49.765Z,9.73
2022-09-26T12:31:57.094Z,8.23
2022-09-26T12:34:05.010Z,10.70
2022-09-26T12:36:19.001Z,10.90
2022-09-26T12:38:32.519Z,5.55
2022-09-26T12:40:53.518Z,11.45
2022-09-26T12:43:14.165Z,8.00
2022-09-26T12:45:30.685Z,7.25
2022-09-26T12:47:50.864Z,11.75
2022-09-26T12:50:15.401Z,10.10
2022-09-26T12:52:27.141Z,9.27
2022-09-26T12:54:48.459Z,9.75
2022-09-26T12:57:04.262Z,16.70
2022-09-26T12:59:12.553Z,16.67
2022-09-26T13:01:37.894Z,7.00
2022-09-26T13:03:45.572Z,13.45
2022-09-26T13:05:53.076Z,3.75
2022-09-26T13:08:06.996Z,6.45
2022-09-26T13:10:17.247Z,13.13
2022-09-26T13:12:21.644Z,8.05
2022-09-26T13:14:32.203Z,7.20
2022-09-26T13:16:40.610Z,8.57
2022-09-26T13:18:45.538Z,4.35
2022-09-26T13:20:53.305Z,6.65
2022-09-26T13:22:57.947Z,6.07
2022-09-26T13:25:04.519Z,4.68
2022-09-26T13:27:41.462Z,3.28
2022-09-26T13:29:51.687Z,3.42
2022-09-26T13:32:00.783Z,5.10
2022-09-26T13:34:23.533Z,6.65
2022-09-26T13:36:34.167Z,4.85
2022-09-26T13:38:54.604Z,3.58
2022-09-26T13:41:19.206Z,6.18
2022-09-26T13:43:27.089Z,7.80
2022-09-26T13:45:47.090Z,3.15
2022-09-26T13:47:51.178Z,5.15
2022-09-26T13:50:05.240Z,4.38
2022-09-26T13:52:18.208Z,5.90
2022-09-26T13:54:34.932Z,5.38
2022-09-26T13:56:52.447Z,5.57
2022-09-26T13:59:04.477Z,6.18
2022-09-26T14:01:26.387Z,10.05
2022-09-26T14:03:28.365Z,5.90
2022-09-26T14:05:52.290Z,6.57
2022-09-26T14:08:20.874Z,12.70
2022-09-26T14:10:25.240Z,6.50
2022-09-26T14:12:45.376Z,7.70
2022-09-26T14:14:51.173Z,5.45
2022-09-26T14:16:54.501Z,11.68
2022-09-26T14:18:55.989Z,8.65
2022-09-26T14:21:06.575Z,9.73
2022-09-26T14:23:29.141Z,8.18
2022-09-26T14:25:45.642Z,6.00
2022-09-26T14:27:47.243Z,12.98
2022-09-26T14:29:53.743Z,9.02
2022-09-26T14:32:01.696Z,7.97
2022-09-26T14:34:09.173Z,11.35
2022-09-26T14:36:27.803Z,4.60
2022-09-26T14:38:29.763Z,8.52
2022-09-26T14:40:33.356Z,5.78
2022-09-26T14:42:37.908Z,6.65
2022-09-26T14:44:45.930Z,4.82
2022-09-26T14:46:51.530Z,9.38
2022-09-26T14:48:58.211Z,8.23
2022-09-26T14:51:04.218Z,6.10
2022-09-26T14:53:28.978Z,11.85
2022-09-26T14:55:30.918Z,9.63
2022-09-26T14:57:33.614Z,6.38
2022-09-26T14:59:35.855Z,7.72
2022-09-26T15:01:38.182Z,9.57
2022-09-26T15:03:40.042Z,7.25
2022-09-26T15:05:42.159Z,9.15
2022-09-26T15:07:47.859Z,5.47
2022-09-26T15:09:54.440Z,7.40
2022-09-26T15:12:01.090Z,7.40
2022-09-26T15:14:10.544Z,9.30
2022-09-26T15:16:14.791Z,5.13
2022-09-26T15:18:28.462Z,7.60
2022-09-26T15:20:32.034Z,11.02
2022-09-26T15:22:34.269Z,8.63
2022-09-26T15:24:38.981Z,7.07
2022-09-26T15:26:42.804Z,7.90
2022-09-26T15:28:46.098Z,8.05
2022-09-26T15:30:49.823Z,10.57
2022-09-26T15:32:56.675Z,12.98
2022-09-26T15:35:00.039Z,6.43
2022-09-26T15:37:08.955Z,9.45
2022-09-26T15:49:22.374Z,6.10
2022-09-26T15:51:44.191Z,6.63
2022-09-26T15:53:53.391Z,5.90
2022-09-26T15:55:58.459Z,6.47
2022-09-26T15:58:02.231Z,8.65
2022-09-26T16:00:03.984Z,8.15
2022-09-26T16:02:20.347Z,9.48
2022-09-26T16:04:23.037Z,7.65
2022-09-26T16:06:26.852Z,8.48
2022-09-26T16:08:31.273Z,9.25
2022-09-26T16:10:33.451Z,5.43
2022-09-26T16:12:40.021Z,5.22
2022-09-26T16:14:47.234Z,7.70
2022-09-26T16:16:48.832Z,5.65
2022-09-26T16:18:54.634Z,8.00
2022-09-26T16:21:14.361Z,6.35
2022-09-26T16:23:26.210Z,7.10
2022-09-26T16:25:31.442Z,9.98
2022-09-26T16:27:34.699Z,6.30
2022-09-26T16:29:40.703Z,7.07
2022-09-26T16:31:46.949Z,10.48
2022-09-26T16:33:56.609Z,3.70
2022-09-26T16:36:29.079Z,6.15
2022-09-26T16:38:37.672Z,11.60
2022-09-26T16:40:44.243Z,6.40
2022-09-26T16:42:54.769Z,6.72
2022-09-26T16:45:02.375Z,7.68
2022-09-26T16:47:27.432Z,11.35
2022-09-26T16:49:38.875Z,7.85
2022-09-26T16:52:03.736Z,5.00
2022-09-26T16:54:12.659Z,6.95
2022-09-26T16:56:25.017Z,8.85
2022-09-26T16:58:42.722Z,7.10
2022-09-26T17:01:10.677Z,8.25
2022-09-26T17:03:32.059Z,6.25
2022-09-26T17:05:34.459Z,7.55
2022-09-26T17:07:35.968Z,5.00
2022-09-26T17:09:38.249Z,9.55
2022-09-26T17:11:40.906Z,3.25
2022-09-26T17:13:42.974Z,5.32
2022-09-26T17:15:48.538Z,5.50
2022-09-26T17:17:53.607Z,7.78
2022-09-26T17:19:59.119Z,6.45
2022-09-26T17:22:01.571Z,3.03
2022-09-26T17:24:03.372Z,4.95
2022-09-26T17:26:06.659Z,6.40
2022-09-26T17:28:16.395Z,5.70
2022-09-26T17:30:18.891Z,5.32
2022-09-26T17:32:28.195Z,5.18
2022-09-26T17:34:30.484Z,5.82
2022-09-26T17:36:32.397Z,2.08
2022-09-26T17:38:38.757Z,6.35
2022-09-26T17:40:43.949Z,4.60
2022-09-26T17:42:48.361Z,5.20
2022-09-26T17:44:53.813Z,5.80
2022-09-26T17:46:56.526Z,1.50
2022-09-26T17:48:59.445Z,8.35
2022-09-26T17:51:02.383Z,1.73
2022-09-26T17:53:05.392Z,9.15
2022-09-26T17:55:08.035Z,6.32
2022-09-26T17:57:13.912Z,5.68
2022-09-26T17:59:22.779Z,2.63
2022-09-26T18:01:26.485Z,4.60
2022-09-26T18:03:30.219Z,3.20
2022-09-26T18:05:34.209Z,4.32
2022-09-26T18:07:38.009Z,3.42
2022-09-26T18:09:41.019Z,5.18
2022-09-26T18:11:44.299Z,8.32
2022-09-26T18:13:54.459Z,5.25
2022-09-26T18:15:58.182Z,4.80
2022-09-26T18:18:01.496Z,5.45
2022-09-26T18:20:02.985Z,5.57
2022-09-26T18:22:06.319Z,7.28
2022-09-26T18:24:11.108Z,3.30
2022-09-26T18:26:25.208Z,5.18
2022-09-26T18:28:26.807Z,6.95
2022-09-26T18:30:28.362Z,5.93
2022-09-26T18:32:34.021Z,5.93
2022-09-26T18:34:35.635Z,7.50
2022-09-26T18:36:37.370Z,7.43
2022-09-26T18:38:39.083Z,4.43
2022-09-26T18:40:50.322Z,4.93
2022-09-26T18:42:53.416Z,4.28
2022-09-26T18:45:00.765Z,7.10
2022-09-26T18:47:04.043Z,5.25
2022-09-26T18:49:06.388Z,6.97
2022-09-26T18:51:08.862Z,3.33
2022-09-26T18:53:14.336Z,4.20
2022-09-26T18:55:38.811Z,5.72
2022-09-26T18:57:59.065Z,3.67
2022-09-26T19:00:03.562Z,2.33
2022-09-26T19:02:10.496Z,3.97
2022-09-26T19:04:16.309Z,6.32
2022-09-26T19:06:19.947Z,5.22
2022-09-26T19:08:33.158Z,4.40
2022-09-26T19:10:34.595Z,7.45
2022-09-26T19:12:39.462Z,12.20
2022-09-26T19:14:40.989Z,3.92
2022-09-26T19:16:43.243Z,3.75
2022-09-26T19:18:45.423Z,4.60
2022-09-26T19:20:47.250Z,2.22
2022-09-26T19:22:49.720Z,3.35
2022-09-26T19:24:53.594Z,3.58
2022-09-26T19:27:01.898Z,4.97
2022-09-26T19:29:11.900Z,6.60
2022-09-26T19:31:14.013Z,4.88
2022-09-26T19:33:15.608Z,2.50
2022-09-26T19:35:17.231Z,2.60
2022-09-26T19:37:18.673Z,5.47
2022-09-26T19:39:26.537Z,5.60
2022-09-26T19:41:39.621Z,2.97
2022-09-26T19:43:46.148Z,1.58
2022-09-26T19:45:57.515Z,6.93
2022-09-26T19:48:00.744Z,4.45
2022-09-26T19:50:04.494Z,3.22
2022-09-26T19:52:15.931Z,4.28
2022-09-26T19:54:27.645Z,6.53
2022-09-26T19:56:38.591Z,11.95
2022-09-26T19:58:54.033Z,5.88
2022-09-26T20:03:07.197Z,2.80
2022-09-26T20:05:27.707Z,5.20
2022-09-26T20:07:31.798Z,9.82
2022-09-26T20:09:33.366Z,3.15
2022-09-26T20:11:34.972Z,4.55
2022-09-26T20:13:55.874Z,2.90
2022-09-26T20:15:57.334Z,7.20
2022-09-26T20:18:00.241Z,3.92
2022-09-26T20:20:02.912Z,5.72
2022-09-26T20:22:07.168Z,2.65
2022-09-26T20:24:12.040Z,3.42
2022-09-26T20:26:15.463Z,4.13
2022-09-26T20:28:17.222Z,3.53
2022-09-26T20:30:38.073Z,3.25
2022-09-26T20:32:42.799Z,6.80
2022-09-26T20:34:44.701Z,5.88
2022-09-26T20:36:48.859Z,2.17
2022-09-26T20:38:50.961Z,2.58
2022-09-26T20:40:59.183Z,6.38
2022-09-26T20:43:03.994Z,2.15
2022-09-26T20:45:05.818Z,4.53
2022-09-26T20:47:10.364Z,3.97
2022-09-26T20:49:14.817Z,6.00
2022-09-26T20:51:23.653Z,11.98
2022-09-26T20:53:25.139Z,8.75
2022-09-26T20:55:26.935Z,5.97
2022-09-26T20:57:30.199Z,7.00
2022-09-26T20:59:35.087Z,5.27
2022-09-26T21:01:37.343Z,6.63
2022-09-26T21:03:44.208Z,2.20
2022-09-26T21:05:46.021Z,6.72
2022-09-26T21:07:48.019Z,5.45
2022-09-26T21:09:50.488Z,6.50
2022-09-26T21:11:51.952Z,4.97
2022-09-26T21:13:53.462Z,2.25
2022-09-26T21:15:54.913Z,8.85
2022-09-26T21:17:56.375Z,7.32
2022-09-26T21:19:57.966Z,4.95
2022-09-26T21:22:02.419Z,7.68
2022-09-26T21:24:04.483Z,5.97
2022-09-26T21:26:05.894Z,4.78
2022-09-26T21:28:18.707Z,6.10
2022-09-26T21:30:20.422Z,4.97
2022-09-26T21:32:22.551Z,12.55
2022-09-26T21:34:26.246Z,6.07
2022-09-26T21:36:35.141Z,9.35
2022-09-26T21:38:36.907Z,7.43
2022-09-26T21:40:39.887Z,12.63
2022-09-26T21:42:43.418Z,4.60
2022-09-26T21:44:47.293Z,8.60
2022-09-26T21:46:48.753Z,7.43
2022-09-26T21:48:50.516Z,4.57
2022-09-26T21:50:58.043Z,8.55
2022-09-26T21:53:02.458Z,11.50
2022-09-26T21:55:06.234Z,4.70
2022-09-26T21:57:09.654Z,7.63
2022-09-26T21:59:11.147Z,8.88
2022-09-26T22:01:14.168Z,3.33
2022-09-26T22:03:15.753Z,9.93
2022-09-26T22:05:18.290Z,5.75
2022-09-26T22:07:20.571Z,7.55
2022-09-26T22:09:22.255Z,6.50
2022-09-26T22:11:23.674Z,6.68
2022-09-26T22:13:25.142Z,9.23
2022-09-26T22:15:26.714Z,5.85
2022-09-26T22:17:28.282Z,9.30
2022-09-26T22:19:33.557Z,6.53
2022-09-26T22:21:35.091Z,5.55
2022-09-26T22:23:37.254Z,11.68
2022-09-26T22:25:42.766Z,11.55
2022-09-26T22:27:44.723Z,9.75
2022-09-26T22:29:46.787Z,7.45
2022-09-26T22:31:48.326Z,6.13
2022-09-26T22:33:49.857Z,9.73
2022-09-26T22:35:51.427Z,9.98
2022-09-26T22:37:53.452Z,7.03
2022-09-26T22:39:55.095Z,8.02
2022-09-26T22:41:56.602Z,6.53
2022-09-26T22:43:58.398Z,8.32
2022-09-26T22:46:02.702Z,8.63
2022-09-26T22:48:13.734Z,3.35
2022-09-26T22:50:28.182Z,7.95
2022-09-26T22:52:35.393Z,6.30
2022-09-26T22:54:46.328Z,12.05
2022-09-26T22:56:56.522Z,6.90
2022-09-26T22:59:07.658Z,5.97
2022-09-26T23:01:19.663Z,9.02
2022-09-26T23:03:29.004Z,4.72
2022-09-26T23:05:34.814Z,4.53
2022-09-26T23:07:44.826Z,7.53
2022-09-26T23:09:51.104Z,4.57
2022-09-26T23:11:57.288Z,7.22
2022-09-26T23:14:00.166Z,6.22
2022-09-26T23:16:08.810Z,2.58
2022-09-26T23:18:11.287Z,9.70
2022-09-26T23:20:12.800Z,8.23
2022-09-26T23:22:15.425Z,6.68
2022-09-26T23:24:17.014Z,2.83
2022-09-26T23:26:21.386Z,2.90
2022-09-26T23:28:22.915Z,3.75
2022-09-26T23:30:24.531Z,3.97
2022-09-26T23:32:26.367Z,13.05
2022-09-26T23:34:27.843Z,4.25
2022-09-26T23:36:29.667Z,5.68
2022-09-26T23:38:31.527Z,9.10
2022-09-26T23:40:34.405Z,9.35
2022-09-26T23:42:36.010Z,8.15
2022-09-26T23:44:37.600Z,3.95
2022-09-26T23:46:39.374Z,3.08
2022-09-26T23:48:41.187Z,6.45
2022-09-26T23:50:43.816Z,7.57
2022-09-26T23:52:45.438Z,4.68
2022-09-26T23:54:47.421Z,4.68
2022-09-26T23:56:48.961Z,10.48
2022-09-26T23:58:50.794Z,9.57
